Time;durP1;ratioP1;P1;durP2;ratioP2;P2;SDS_P1;SDS_P2;PMS_P1;PMS_P2;Temp;Humidity;BMP_temperature;BMP_pressure;BME280_temperature;BME280_humidity;BME280_pressure;Samples;Min_cycle;Max_cycle;Signal;HPM_P1;HPM_P2
2022/12/21 00:01:13;;;;;;;730.03;653.50;;;9.90;99.90;;;;;;5055320;28;20459;-84
2022/12/21 00:03:40;;;;;;;737.50;661.10;;;9.90;99.90;;;;;;5068766;28;20458;-83
2022/12/21 00:06:08;;;;;;;743.97;667.67;;;9.90;99.90;;;;;;5075134;28;20838;-83
2022/12/21 00:08:39;;;;;;;741.07;665.33;;;9.90;99.90;;;;;;5075111;28;20477;-82
2022/12/21 00:11:06;;;;;;;744.83;668.40;;;9.90;99.90;;;;;;5058468;28;20507;-85
2022/12/21 00:13:36;;;;;;;753.63;677.43;;;9.90;99.90;;;;;;5074705;28;20450;-83
2022/12/21 00:16:05;;;;;;;739.77;664.70;;;10.00;99.90;;;;;;5062465;28;20451;-83
2022/12/21 00:18:33;;;;;;;740.37;665.57;;;9.90;99.90;;;;;;5067706;28;20467;-83
2022/12/21 00:21:01;;;;;;;732.63;658.00;;;9.80;99.90;;;;;;5075777;28;20450;-84
2022/12/21 00:23:28;;;;;;;732.07;657.97;;;9.90;99.90;;;;;;5064719;28;20455;-83
2022/12/21 00:25:56;;;;;;;735.87;661.57;;;9.90;99.90;;;;;;5057015;28;20447;-83
2022/12/21 00:28:22;;;;;;;736.37;661.93;;;9.80;99.90;;;;;;5056628;28;20474;-83
2022/12/21 00:30:49;;;;;;;731.33;657.73;;;9.80;99.90;;;;;;5056799;28;20481;-84
2022/12/21 00:33:16;;;;;;;747.57;673.77;;;9.80;99.90;;;;;;5065890;28;20462;-83
2022/12/21 00:35:48;;;;;;;744.67;671.43;;;9.80;99.90;;;;;;5069970;28;20454;-84
2022/12/21 00:38:15;;;;;;;755.27;683.07;;;9.80;99.90;;;;;;5075810;28;20474;-84
2022/12/21 00:40:42;;;;;;;751.70;680.20;;;9.70;99.90;;;;;;5072638;28;20522;-84
2022/12/21 00:43:09;;;;;;;762.63;691.40;;;9.70;99.90;;;;;;5065109;28;21159;-85
2022/12/21 00:45:35;;;;;;;748.57;678.47;;;9.60;99.90;;;;;;5074503;28;20454;-84
2022/12/21 00:48:03;;;;;;;743.07;673.37;;;9.40;99.90;;;;;;5056534;28;20467;-83
2022/12/21 00:50:29;;;;;;;741.87;671.47;;;9.40;99.90;;;;;;5066479;28;20474;-85
2022/12/21 00:52:57;;;;;;;740.43;669.57;;;9.40;99.90;;;;;;5075434;28;20484;-83
2022/12/21 00:55:24;;;;;;;749.17;677.63;;;9.40;99.90;;;;;;5074887;28;20450;-84
2022/12/21 00:57:51;;;;;;;744.87;673.37;;;9.40;99.90;;;;;;5071906;28;20475;-84
2022/12/21 01:00:18;;;;;;;740.87;668.73;;;9.50;99.90;;;;;;5054693;28;20443;-83
2022/12/21 01:02:45;;;;;;;741.17;668.60;;;9.50;99.90;;;;;;5068303;28;20447;-83
2022/12/21 01:05:12;;;;;;;747.33;674.00;;;9.50;99.90;;;;;;5074485;28;20521;-83
2022/12/21 01:07:38;;;;;;;746.13;672.60;;;9.50;99.90;;;;;;5075646;28;20470;-84
2022/12/21 01:10:08;;;;;;;752.13;678.07;;;9.50;99.90;;;;;;5060733;28;20447;-83
2022/12/21 01:12:35;;;;;;;760.60;685.90;;;9.60;99.90;;;;;;5055111;28;20853;-84
2022/12/21 01:15:02;;;;;;;779.37;703.93;;;9.60;99.90;;;;;;5070380;28;20462;-83
2022/12/21 01:17:29;;;;;;;763.10;687.60;;;9.60;99.90;;;;;;5056036;28;20551;-84
2022/12/21 01:19:56;;;;;;;771.97;696.00;;;9.70;99.90;;;;;;5054178;28;20447;-84
2022/12/21 01:22:22;;;;;;;771.10;694.93;;;9.70;99.90;;;;;;5060163;28;20947;-83
2022/12/21 01:24:49;;;;;;;738.87;664.27;;;9.80;99.90;;;;;;5060441;28;20446;-83
2022/12/21 01:27:17;;;;;;;747.97;672.70;;;9.80;99.90;;;;;;5073017;28;20466;-84
2022/12/21 01:29:44;;;;;;;746.27;671.40;;;9.80;99.90;;;;;;5073392;28;20977;-83
2022/12/21 01:32:11;;;;;;;747.77;672.67;;;9.80;99.90;;;;;;5053084;28;20479;-83
2022/12/21 01:34:37;;;;;;;746.00;671.90;;;9.70;99.90;;;;;;5070751;28;20525;-84
2022/12/21 01:37:04;;;;;;;738.40;664.63;;;9.80;99.90;;;;;;5064716;28;20471;-84
2022/12/21 01:39:31;;;;;;;743.60;669.70;;;9.70;99.90;;;;;;5053692;28;20481;-83
2022/12/21 01:41:58;;;;;;;747.97;673.60;;;9.70;99.90;;;;;;5066954;28;20449;-84
2022/12/21 01:44:58;;;;;;;749.63;675.03;;;9.70;99.90;;;;;;5056420;28;20455;-84
2022/12/21 01:47:31;;;;;;;742.57;668.00;;;9.80;99.90;;;;;;5065571;28;20478;-83
2022/12/21 01:50:02;;;;;;;743.70;670.20;;;9.70;99.90;;;;;;5066120;28;20971;-84
2022/12/21 01:52:29;;;;;;;749.57;675.97;;;9.70;99.90;;;;;;5052975;28;20466;-84
2022/12/21 01:55:01;;;;;;;745.50;672.33;;;9.70;99.90;;;;;;5071612;28;20458;-83
2022/12/21 01:57:30;;;;;;;756.10;681.70;;;9.70;99.90;;;;;;5069702;28;20470;-83
2022/12/21 02:00:01;;;;;;;753.60;679.23;;;9.70;99.90;;;;;;5065644;28;20454;-83
2022/12/21 02:02:33;;;;;;;758.30;683.50;;;9.60;99.90;;;;;;5077422;28;20480;-83
2022/12/21 02:05:07;;;;;;;766.57;692.47;;;9.60;99.90;;;;;;5063921;28;20452;-84
2022/12/21 02:07:35;;;;;;;745.67;673.33;;;9.60;99.90;;;;;;5067999;28;20462;-83
2022/12/21 02:10:03;;;;;;;749.83;678.00;;;9.40;99.90;;;;;;5062798;28;20956;-84
2022/12/21 02:12:31;;;;;;;752.27;679.13;;;9.40;99.90;;;;;;5074148;28;21001;-84
2022/12/21 02:15:00;;;;;;;753.57;679.43;;;9.40;99.90;;;;;;5074228;28;20839;-83
2022/12/21 02:17:51;;;;;;;746.23;671.77;;;9.50;99.90;;;;;;5057038;28;21040;-84
2022/12/21 02:20:52;;;;;;;755.17;680.30;;;9.50;99.90;;;;;;5072419;28;20450;-83
2022/12/21 02:23:51;;;;;;;749.87;675.80;;;9.40;99.90;;;;;;5056516;28;20446;-84
2022/12/21 02:26:57;;;;;;;750.33;676.60;;;9.40;99.90;;;;;;5079711;28;20548;-84
2022/12/21 02:30:04;;;;;;;741.13;667.37;;;9.30;99.90;;;;;;5025766;28;20462;-83
2022/12/21 02:32:46;;;;;;;744.07;670.90;;;9.30;99.90;;;;;;5054319;28;20485;-84
2022/12/21 02:35:22;;;;;;;748.47;675.73;;;9.30;99.90;;;;;;5071919;28;20517;-83
2022/12/21 02:37:59;;;;;;;741.37;668.30;;;9.20;99.90;;;;;;5076254;28;20480;-84
2022/12/21 02:40:34;;;;;;;742.53;669.23;;;9.00;99.90;;;;;;5079561;28;20460;-82
2022/12/21 02:45:58;;;;;;;741.63;666.73;;;9.00;99.90;;;;;;5057777;28;20435;-83
2022/12/21 02:48:33;;;;;;;744.27;669.17;;;9.00;99.90;;;;;;5078184;28;20833;-83
2022/12/21 02:51:04;;;;;;;739.00;664.00;;;9.10;99.90;;;;;;5076702;28;20474;-83
2022/12/21 02:53:34;;;;;;;749.13;672.77;;;9.20;99.90;;;;;;5064446;28;20820;-83
2022/12/21 02:56:00;;;;;;;746.00;669.97;;;9.20;99.90;;;;;;5058352;28;20829;-83
2022/12/21 02:58:27;;;;;;;766.73;691.00;;;9.20;99.90;;;;;;5068083;28;20852;-83
2022/12/21 03:01:08;;;;;;;751.90;676.33;;;9.10;99.90;;;;;;5073765;28;20442;-83
2022/12/21 03:04:10;;;;;;;758.33;682.20;;;9.10;99.90;;;;;;5057200;28;20451;-84
2022/12/21 03:07:05;;;;;;;746.40;671.20;;;9.10;99.90;;;;;;5046372;28;20464;-83
2022/12/21 03:09:53;;;;;;;751.63;676.53;;;9.00;99.90;;;;;;5069304;28;20444;-83
2022/12/21 03:12:29;;;;;;;743.80;669.67;;;9.00;99.90;;;;;;5072385;28;20482;-84
2022/12/21 03:15:03;;;;;;;748.43;674.77;;;8.90;99.90;;;;;;5070466;28;20811;-83
2022/12/21 03:17:38;;;;;;;738.97;665.27;;;8.80;99.90;;;;;;5065217;28;20469;-84
2022/12/21 03:20:13;;;;;;;743.77;669.27;;;8.80;99.90;;;;;;5064576;28;20454;-83
2022/12/21 03:22:46;;;;;;;748.40;673.63;;;8.80;99.90;;;;;;5079707;28;20493;-84
2022/12/21 03:25:21;;;;;;;747.30;670.77;;;8.80;99.90;;;;;;5066896;28;20458;-84
2022/12/21 03:27:51;;;;;;;748.17;672.47;;;8.70;99.90;;;;;;5079257;28;20481;-84
2022/12/21 03:30:20;;;;;;;739.00;663.30;;;8.60;99.90;;;;;;5077980;28;20829;-83
2022/12/21 03:32:51;;;;;;;737.90;661.10;;;8.60;99.90;;;;;;5059210;28;20472;-82
2022/12/21 03:35:26;;;;;;;740.07;662.13;;;8.70;99.90;;;;;;5068459;28;20808;-83
2022/12/21 03:37:56;;;;;;;733.83;656.67;;;8.80;99.90;;;;;;5079268;28;20486;-84
2022/12/21 03:40:25;;;;;;;734.07;655.97;;;8.80;99.90;;;;;;5072966;28;20457;-84
2022/12/21 03:42:59;;;;;;;738.13;660.17;;;8.90;99.90;;;;;;5063747;28;20976;-84
2022/12/21 03:45:30;;;;;;;730.17;651.87;;;8.90;99.90;;;;;;5074047;28;20450;-84
2022/12/21 03:48:02;;;;;;;736.90;657.13;;;9.00;99.90;;;;;;5063324;28;20853;-83
2022/12/21 03:50:35;;;;;;;735.13;656.60;;;9.00;99.90;;;;;;5066421;28;20455;-85
2022/12/21 03:53:07;;;;;;;746.47;666.00;;;9.00;99.90;;;;;;5069323;28;20470;-83
2022/12/21 03:55:37;;;;;;;748.97;669.50;;;9.00;99.90;;;;;;5070578;28;20447;-83
2022/12/21 03:58:06;;;;;;;742.97;663.97;;;9.10;99.90;;;;;;5078769;28;20466;-84
2022/12/21 04:00:45;;;;;;;750.37;672.77;;;9.00;99.90;;;;;;5058324;28;21007;-83
2022/12/21 04:03:17;;;;;;;738.00;659.30;;;9.10;99.90;;;;;;5059363;28;20451;-85
2022/12/21 04:05:53;;;;;;;732.67;653.90;;;9.00;99.90;;;;;;5078691;28;20447;-83
2022/12/21 04:08:20;;;;;;;724.00;647.20;;;9.10;99.90;;;;;;5078478;28;20489;-85
2022/12/21 04:10:48;;;;;;;723.13;645.20;;;9.10;99.90;;;;;;5059794;28;20458;-84
2022/12/21 04:13:14;;;;;;;727.03;650.17;;;9.00;99.90;;;;;;5060351;28;20458;-83
2022/12/21 04:21:07;;;;;;;813.87;668.83;;;8.80;99.90;;;;;;5063026;28;20438;-83
2022/12/21 04:29:02;;;;;;;726.87;652.30;;;8.50;99.90;;;;;;5064390;28;20442;-83
2022/12/21 04:31:29;;;;;;;734.47;659.63;;;8.40;99.90;;;;;;5059091;28;20475;-83
2022/12/21 04:33:56;;;;;;;734.70;659.73;;;8.40;99.90;;;;;;5059314;28;20447;-84
2022/12/21 04:39:11;;;;;;;733.07;655.17;;;8.50;99.90;;;;;;5063020;28;20535;-83
2022/12/21 04:41:38;;;;;;;744.07;662.43;;;8.60;99.90;;;;;;5075591;28;20439;-85
2022/12/21 04:44:05;;;;;;;725.37;646.60;;;8.50;99.90;;;;;;5076157;28;20455;-84
2022/12/21 04:46:31;;;;;;;795.73;672.07;;;8.50;99.90;;;;;;5065887;28;20444;-84
2022/12/21 04:48:58;;;;;;;765.97;658.47;;;8.50;99.90;;;;;;5073500;28;20466;-84
2022/12/21 04:51:26;;;;;;;766.93;649.60;;;8.60;99.90;;;;;;5077589;28;20986;-84
2022/12/21 04:53:54;;;;;;;786.77;651.30;;;8.60;99.90;;;;;;5061931;28;20473;-84
2022/12/21 04:56:21;;;;;;;736.57;645.60;;;8.70;99.90;;;;;;5078864;28;20473;-84
2022/12/21 04:58:48;;;;;;;761.77;640.90;;;8.80;99.90;;;;;;5060805;28;20471;-85
2022/12/21 05:01:17;;;;;;;801.40;649.70;;;8.80;99.90;;;;;;5058754;28;21042;-84
2022/12/21 05:03:44;;;;;;;774.93;645.70;;;8.80;99.90;;;;;;5057786;28;20454;-84
2022/12/21 05:06:13;;;;;;;735.27;642.07;;;8.90;99.90;;;;;;5064472;28;20451;-83
2022/12/21 05:08:41;;;;;;;726.80;646.17;;;9.00;99.90;;;;;;5078701;28;20497;-85
2022/12/21 05:11:10;;;;;;;741.13;634.77;;;9.00;99.90;;;;;;5073861;28;20455;-84
2022/12/21 05:13:36;;;;;;;729.30;637.07;;;9.10;99.90;;;;;;5059691;28;20846;-85
2022/12/21 05:16:03;;;;;;;727.53;629.23;;;9.10;99.90;;;;;;5057844;28;20462;-85
2022/12/21 05:18:30;;;;;;;762.27;646.00;;;9.20;99.90;;;;;;5059604;28;20467;-85
2022/12/21 05:20:57;;;;;;;745.23;646.83;;;9.30;99.90;;;;;;5060478;28;20554;-84
2022/12/21 05:23:24;;;;;;;738.87;651.27;;;9.30;99.90;;;;;;5064270;28;20444;-84
2022/12/21 05:25:52;;;;;;;731.43;651.17;;;9.40;99.90;;;;;;5058391;28;20451;-84
2022/12/21 05:28:19;;;;;;;773.00;660.00;;;9.40;99.90;;;;;;5060313;28;20471;-86
2022/12/21 05:30:45;;;;;;;800.80;658.97;;;9.40;99.90;;;;;;5060154;28;20454;-84
2022/12/21 05:33:12;;;;;;;746.30;659.37;;;9.30;99.90;;;;;;5058303;28;20482;-84
2022/12/21 05:35:39;;;;;;;741.63;660.00;;;9.30;99.90;;;;;;5060418;28;20447;-84
2022/12/21 05:38:06;;;;;;;756.13;666.57;;;9.20;99.90;;;;;;5079201;28;20485;-84
2022/12/21 05:40:34;;;;;;;769.37;656.33;;;9.20;99.90;;;;;;5078930;28;20457;-84
2022/12/21 05:43:02;;;;;;;761.77;651.47;;;9.30;99.90;;;;;;5078087;28;20454;-84
2022/12/21 05:45:29;;;;;;;758.43;650.17;;;9.20;99.90;;;;;;5079298;28;20450;-84
2022/12/21 05:47:56;;;;;;;771.37;645.70;;;9.20;99.90;;;;;;5075260;28;20843;-86
2022/12/21 05:50:23;;;;;;;790.30;642.63;;;9.20;99.90;;;;;;5060858;28;20458;-85
2022/12/21 05:52:50;;;;;;;763.77;643.13;;;9.20;99.90;;;;;;5067169;28;20466;-85
2022/12/21 05:55:17;;;;;;;743.57;645.77;;;9.20;99.90;;;;;;5082009;28;20828;-85
2022/12/21 05:57:43;;;;;;;737.57;658.77;;;9.20;99.90;;;;;;5079081;28;20474;-85
2022/12/21 06:00:13;;;;;;;732.33;651.73;;;9.20;99.90;;;;;;5061067;28;20444;-84
2022/12/21 06:02:40;;;;;;;741.67;648.40;;;9.20;99.90;;;;;;5058501;28;20460;-84
2022/12/21 06:05:07;;;;;;;738.03;644.57;;;9.30;99.90;;;;;;5059095;28;20462;-83
2022/12/21 06:07:35;;;;;;;706.73;628.83;;;9.30;99.90;;;;;;5078099;28;20475;-84
2022/12/21 06:10:01;;;;;;;738.83;658.77;;;9.30;99.90;;;;;;5077433;28;20451;-83
2022/12/21 06:12:29;;;;;;;759.60;660.13;;;9.30;99.90;;;;;;5057094;28;20482;-83
2022/12/21 06:14:56;;;;;;;774.50;653.40;;;9.30;99.90;;;;;;5055734;28;20447;-83
2022/12/21 06:17:26;;;;;;;739.20;643.00;;;9.20;99.90;;;;;;5073668;28;20477;-83
2022/12/21 06:19:53;;;;;;;746.57;665.67;;;9.20;99.90;;;;;;5074793;28;20446;-84
2022/12/21 06:22:20;;;;;;;749.30;670.80;;;9.20;99.90;;;;;;5056545;28;20455;-84
2022/12/21 06:24:46;;;;;;;748.10;670.00;;;9.10;99.90;;;;;;5067841;28;20448;-83
2022/12/21 06:27:13;;;;;;;752.17;673.17;;;9.10;99.90;;;;;;5077240;28;20470;-83
2022/12/21 06:29:40;;;;;;;754.90;675.50;;;9.10;99.90;;;;;;5075049;28;20831;-83
2022/12/21 06:32:06;;;;;;;705.03;628.13;;;9.10;99.90;;;;;;5075355;28;20485;-83
2022/12/21 06:34:34;;;;;;;715.43;638.20;;;9.10;99.90;;;;;;5055313;28;20447;-82
2022/12/21 06:37:02;;;;;;;706.47;624.87;;;9.10;99.90;;;;;;5053808;28;20517;-82
2022/12/21 06:39:28;;;;;;;725.80;648.90;;;9.10;99.90;;;;;;5073338;28;20442;-82
2022/12/21 06:41:55;;;;;;;729.87;653.47;;;9.10;99.90;;;;;;5073866;28;20469;-82
2022/12/21 06:44:22;;;;;;;717.77;638.67;;;9.00;99.90;;;;;;5056433;28;20458;-81
2022/12/21 06:46:48;;;;;;;712.07;634.03;;;9.10;99.90;;;;;;5061512;28;20446;-81
2022/12/21 06:49:15;;;;;;;704.53;628.17;;;9.00;99.90;;;;;;5081311;28;20446;-83
2022/12/21 06:51:43;;;;;;;696.33;621.07;;;8.90;99.90;;;;;;5075687;28;20443;-82
2022/12/21 06:54:11;;;;;;;709.90;631.77;;;8.90;99.90;;;;;;5081270;28;20473;-83
2022/12/21 06:56:38;;;;;;;715.17;636.27;;;8.90;99.90;;;;;;5080193;28;20446;-82
2022/12/21 06:59:05;;;;;;;726.40;629.70;;;8.80;99.90;;;;;;5071462;28;20457;-82
2022/12/21 07:01:34;;;;;;;704.87;628.13;;;8.90;99.90;;;;;;5062394;28;20534;-83
2022/12/21 07:04:01;;;;;;;710.93;634.80;;;8.90;99.90;;;;;;5075154;28;20459;-83
2022/12/21 07:06:30;;;;;;;717.60;641.13;;;8.90;99.90;;;;;;5075498;28;20450;-84
2022/12/21 07:08:59;;;;;;;714.87;637.00;;;9.00;99.90;;;;;;5071319;28;20468;-83
2022/12/21 07:11:28;;;;;;;715.33;637.17;;;9.10;99.90;;;;;;5069830;28;20450;-83
2022/12/21 07:13:55;;;;;;;719.57;641.67;;;9.10;99.90;;;;;;5063692;28;20479;-83
2022/12/21 07:16:23;;;;;;;723.63;644.13;;;9.20;99.90;;;;;;5060920;28;20451;-82
2022/12/21 07:18:50;;;;;;;721.07;642.23;;;9.30;99.90;;;;;;5065031;28;20995;-83
2022/12/21 07:21:19;;;;;;;715.70;637.07;;;9.20;99.90;;;;;;5061462;28;20451;-82
2022/12/21 07:23:46;;;;;;;717.00;639.10;;;9.10;99.90;;;;;;5075888;28;20489;-83
2022/12/21 07:26:16;;;;;;;727.10;648.70;;;9.00;99.90;;;;;;5072910;28;20811;-83
2022/12/21 07:28:44;;;;;;;729.57;650.67;;;8.90;99.90;;;;;;5077216;28;20468;-83
2022/12/21 07:31:13;;;;;;;728.67;649.90;;;9.00;99.90;;;;;;5073711;28;20451;-83
2022/12/21 07:33:40;;;;;;;722.13;642.80;;;9.10;99.90;;;;;;5062135;28;20469;-83
2022/12/21 07:36:08;;;;;;;724.77;646.70;;;9.00;99.90;;;;;;5066432;28;20883;-83
2022/12/21 07:38:37;;;;;;;729.17;650.53;;;9.00;99.90;;;;;;5068444;28;20482;-83
2022/12/21 07:41:06;;;;;;;715.93;637.27;;;9.00;99.90;;;;;;5063672;28;20825;-83
2022/12/21 07:43:35;;;;;;;718.63;640.23;;;8.90;99.90;;;;;;5076001;28;20444;-83
2022/12/21 07:46:02;;;;;;;720.43;642.53;;;8.80;99.90;;;;;;5068391;28;20461;-83
2022/12/21 07:48:28;;;;;;;721.93;642.53;;;8.70;99.90;;;;;;5063099;28;20467;-83
2022/12/21 07:50:55;;;;;;;722.40;643.10;;;8.80;99.90;;;;;;5060514;28;20463;-83
2022/12/21 07:53:22;;;;;;;727.90;649.40;;;8.70;99.90;;;;;;5071444;28;20492;-83
2022/12/21 07:55:52;;;;;;;723.87;644.07;;;8.70;99.90;;;;;;5080185;28;20446;-82
2022/12/21 08:01:15;;;;;;;735.97;659.07;;;8.90;99.90;;;;;;5062714;28;20458;-82
2022/12/21 08:03:44;;;;;;;734.13;655.73;;;8.90;99.90;;;;;;5060126;28;20452;-83
2022/12/21 08:06:12;;;;;;;728.50;649.80;;;9.00;99.90;;;;;;5074159;28;20454;-83
2022/12/21 08:08:39;;;;;;;743.00;663.50;;;9.10;99.90;;;;;;5077406;28;20478;-82
2022/12/21 08:17:29;;;;;;;734.50;657.90;;;9.30;99.90;;;;;;4995904;28;20533;-82
2022/12/21 08:19:59;;;;;;;731.40;654.20;;;8.60;99.90;;;;;;5064022;28;20450;-83
2022/12/21 08:22:47;;;;;;;728.20;650.37;;;8.70;99.90;;;;;;5059846;28;21022;-84
2022/12/21 08:25:33;;;;;;;727.77;649.87;;;8.80;99.90;;;;;;5060166;28;20459;-84
2022/12/21 08:32:46;;;;;;;;;;;;;;;;;;;;;
2022/12/21 08:38:40;;;;;;;;;;;;;;;;;;;;;
2022/12/21 08:44:35;;;;;;;723.43;645.57;;;9.20;99.90;;;;;;5039868;28;20443;-84
2022/12/21 08:47:02;;;;;;;714.13;634.67;;;9.20;99.90;;;;;;5155717;23;20453;-82
2022/12/21 08:49:42;;;;;;;717.67;639.70;;;9.20;99.90;;;;;;5059892;28;20531;-83
2022/12/21 08:52:15;;;;;;;722.40;644.80;;;9.30;99.90;;;;;;5060062;28;20443;-83
2022/12/21 08:54:42;;;;;;;720.10;641.50;;;9.30;99.90;;;;;;5059574;28;20454;-83
2022/12/21 08:57:33;;;;;;;720.97;642.37;;;9.50;99.90;;;;;;5059380;28;20471;-83
2022/12/21 09:00:00;;;;;;;723.80;644.37;;;9.50;99.90;;;;;;4997721;28;20980;-83
2022/12/21 09:02:28;;;;;;;720.83;641.77;;;9.60;99.90;;;;;;5042459;23;20512;-83
2022/12/21 09:04:55;;;;;;;723.73;635.90;;;9.60;99.90;;;;;;5077940;28;20454;-83
2022/12/21 09:07:23;;;;;;;721.53;642.50;;;9.60;99.90;;;;;;5078823;28;20969;-83
2022/12/21 09:09:49;;;;;;;721.10;642.80;;;9.50;99.90;;;;;;5078343;28;20454;-83
2022/12/21 09:12:16;;;;;;;727.20;648.50;;;9.50;99.90;;;;;;5077717;28;20478;-83
2022/12/21 09:14:43;;;;;;;738.27;659.23;;;9.60;99.90;;;;;;5078439;28;20456;-83
2022/12/21 09:17:10;;;;;;;751.77;671.47;;;9.60;99.90;;;;;;5078409;28;20454;-83
2022/12/21 09:19:37;;;;;;;759.23;679.77;;;9.70;99.90;;;;;;5078920;28;20459;-83
2022/12/21 09:22:04;;;;;;;760.13;680.77;;;9.70;99.90;;;;;;5077995;28;20474;-83
2022/12/21 09:24:32;;;;;;;757.57;677.57;;;9.60;99.90;;;;;;5078306;28;20457;-83
2022/12/21 09:26:59;;;;;;;758.50;679.77;;;9.50;99.90;;;;;;5078245;28;20459;-83
2022/12/21 09:29:26;;;;;;;764.90;689.27;;;9.30;99.90;;;;;;5078446;28;20451;-82
2022/12/21 09:31:53;;;;;;;759.20;683.17;;;9.10;99.90;;;;;;5077574;28;20462;-82
2022/12/21 09:34:20;;;;;;;760.77;683.20;;;8.90;99.90;;;;;;5078605;28;20485;-83
2022/12/21 09:36:47;;;;;;;755.00;677.47;;;8.80;99.90;;;;;;5077472;28;20486;-82
2022/12/21 09:39:14;;;;;;;749.53;672.00;;;8.70;99.90;;;;;;5078443;28;20458;-83
2022/12/21 09:41:53;;;;;;;755.07;676.70;;;8.60;99.90;;;;;;5077996;28;20533;-82
2022/12/21 09:44:40;;;;;;;756.20;677.40;;;8.60;99.90;;;;;;5078232;28;20459;-83
2022/12/21 09:47:14;;;;;;;761.00;682.80;;;8.40;99.90;;;;;;5078455;28;20458;-83
2022/12/21 09:49:45;;;;;;;755.03;678.30;;;8.40;99.90;;;;;;5078319;28;20954;-83
2022/12/21 09:52:21;;;;;;;755.90;679.00;;;8.40;99.90;;;;;;5077702;28;20475;-82
2022/12/21 09:54:55;;;;;;;761.70;683.40;;;8.40;99.90;;;;;;5078088;28;20485;-83
2022/12/21 09:57:28;;;;;;;762.43;684.50;;;8.40;99.90;;;;;;5078386;28;20450;-83
2022/12/21 09:59:55;;;;;;;758.60;679.70;;;8.50;99.90;;;;;;5077668;28;20450;-83
2022/12/21 10:02:36;;;;;;;752.07;673.77;;;8.50;99.90;;;;;;5077382;28;20478;-83
2022/12/21 10:05:16;;;;;;;758.07;679.80;;;8.50;99.90;;;;;;5077810;28;20458;-83
2022/12/21 10:08:17;;;;;;;745.40;667.53;;;8.60;99.90;;;;;;5077884;28;20474;-82
2022/12/21 10:10:51;;;;;;;748.37;672.07;;;8.60;99.90;;;;;;5078132;28;20454;-83
2022/12/21 10:13:30;;;;;;;742.17;667.53;;;8.60;99.90;;;;;;5077565;28;20474;-83
2022/12/21 10:16:08;;;;;;;719.77;647.00;;;8.60;99.90;;;;;;5078065;28;20962;-82
2022/12/21 10:18:41;;;;;;;699.57;628.23;;;8.60;99.90;;;;;;5077422;28;20458;-82
2022/12/21 10:21:17;;;;;;;686.50;617.63;;;8.80;99.90;;;;;;5079869;28;20831;-82
2022/12/21 10:23:47;;;;;;;703.43;631.93;;;8.80;99.90;;;;;;5081382;28;20472;-83
2022/12/21 10:26:16;;;;;;;720.90;650.10;;;8.90;99.90;;;;;;5081754;28;20454;-83
2022/12/21 10:28:50;;;;;;;729.33;659.23;;;9.00;99.90;;;;;;5081893;28;20454;-83
2022/12/21 10:31:22;;;;;;;717.10;651.57;;;9.10;99.90;;;;;;5079074;28;20456;-82
2022/12/21 10:33:51;;;;;;;718.07;652.80;;;9.20;99.90;;;;;;5072838;28;20471;-81
2022/12/21 10:36:22;;;;;;;715.03;652.03;;;9.20;99.90;;;;;;5061790;28;20461;-83
2022/12/21 10:38:48;;;;;;;708.67;647.03;;;9.30;99.90;;;;;;5063661;28;20443;-83
2022/12/21 10:41:19;;;;;;;693.60;638.40;;;9.30;99.90;;;;;;5063902;28;20457;-85
2022/12/21 10:43:49;;;;;;;693.73;639.27;;;9.30;99.90;;;;;;5068380;28;20463;-83
2022/12/21 10:46:18;;;;;;;693.87;641.13;;;9.30;99.90;;;;;;5062667;28;20447;-82
2022/12/21 10:48:46;;;;;;;692.93;640.13;;;9.30;99.90;;;;;;5082665;28;20450;-83
2022/12/21 10:51:21;;;;;;;678.20;628.03;;;9.30;99.90;;;;;;5081826;28;20556;-82
2022/12/21 10:53:59;;;;;;;673.50;623.53;;;9.30;99.90;;;;;;5062417;28;20509;-83
2022/12/21 10:56:27;;;;;;;668.50;620.00;;;9.30;99.90;;;;;;5062481;28;20508;-83
2022/12/21 10:59:00;;;;;;;656.60;608.60;;;9.30;99.90;;;;;;5068155;28;20454;-83
2022/12/21 11:01:29;;;;;;;640.90;596.23;;;9.40;99.90;;;;;;5081889;28;20450;-83
2022/12/21 11:04:13;;;;;;;627.93;585.93;;;9.50;99.90;;;;;;5076020;28;20482;-83
2022/12/21 11:06:40;;;;;;;609.17;570.43;;;9.80;99.90;;;;;;5061208;28;21041;-83
2022/12/21 11:09:28;;;;;;;570.90;537.43;;;9.80;99.90;;;;;;5068253;28;20446;-83
2022/12/21 11:11:55;;;;;;;553.73;521.63;;;10.10;99.90;;;;;;5081717;28;20459;-82
2022/12/21 11:14:24;;;;;;;507.97;480.47;;;10.30;99.90;;;;;;5073721;28;20475;-83
2022/12/21 11:16:52;;;;;;;455.57;433.63;;;10.40;99.90;;;;;;5064284;28;20442;-83
2022/12/21 11:19:21;;;;;;;344.90;330.27;;;10.50;99.90;;;;;;5081198;28;20465;-83
2022/12/21 11:21:50;;;;;;;279.07;267.43;;;10.50;99.90;;;;;;5075005;28;20846;-83
2022/12/21 11:24:21;;;;;;;258.43;247.60;;;10.50;99.90;;;;;;5062309;28;20443;-82
2022/12/21 11:26:51;;;;;;;195.90;188.30;;;10.50;99.90;;;;;;5067942;28;20450;-83
2022/12/21 11:29:24;;;;;;;82.87;78.47;;;10.60;99.90;;;;;;5078741;28;20447;-83
2022/12/21 11:31:52;;;;;;;77.63;73.77;;;10.60;99.90;;;;;;5063354;28;20447;-84
2022/12/21 11:34:27;;;;;;;60.20;56.43;;;10.40;99.90;;;;;;5067661;28;20858;-83
2022/12/21 11:36:56;;;;;;;96.50;91.83;;;10.40;99.90;;;;;;5069079;28;20457;-81
2022/12/21 11:39:24;;;;;;;67.97;64.27;;;10.30;99.90;;;;;;5080620;28;20450;-82
2022/12/21 11:41:52;;;;;;;126.13;120.30;;;10.20;99.90;;;;;;5059580;28;20481;-84
2022/12/21 11:44:25;;;;;;;102.67;98.07;;;10.20;99.90;;;;;;5064068;28;20451;-84
2022/12/21 11:47:07;;;;;;;119.70;114.00;;;10.10;99.90;;;;;;5082254;28;21004;-84
2022/12/21 11:50:22;;;;;;;147.70;142.10;;;10.00;99.90;;;;;;5081091;28;20461;-84
2022/12/21 11:53:13;;;;;;;152.67;146.77;;;10.00;99.90;;;;;;5060844;28;20467;-83
2022/12/21 11:55:56;;;;;;;192.83;185.97;;;10.00;99.90;;;;;;5061263;28;20463;-83
2022/12/21 11:58:37;;;;;;;134.33;129.03;;;10.10;99.90;;;;;;5061944;28;20829;-83
2022/12/21 12:01:16;;;;;;;108.47;103.00;;;10.00;99.90;;;;;;5059089;28;20454;-83
2022/12/21 12:03:56;;;;;;;118.70;113.80;;;9.90;99.90;;;;;;5058880;28;20478;-81
2022/12/21 12:06:43;;;;;;;92.90;89.40;;;9.90;99.90;;;;;;5060473;28;20936;-83
2022/12/21 12:09:25;;;;;;;82.53;78.63;;;9.80;99.90;;;;;;5072916;28;20507;-83
2022/12/21 12:11:57;;;;;;;72.27;69.17;;;9.90;99.90;;;;;;5077789;28;20457;-83
2022/12/21 12:14:47;;;;;;;84.07;80.17;;;10.00;99.90;;;;;;5076901;28;20986;-83
2022/12/21 12:17:29;;;;;;;59.07;56.53;;;10.00;99.90;;;;;;5079544;28;20491;-83
2022/12/21 12:20:03;;;;;;;43.43;41.10;;;10.10;99.90;;;;;;5063824;28;20449;-83
2022/12/21 12:22:48;;;;;;;55.67;53.10;;;10.20;99.90;;;;;;5059023;28;20486;-83
2022/12/21 12:25:39;;;;;;;55.53;53.07;;;10.20;99.90;;;;;;5075540;28;20449;-83
2022/12/21 12:28:31;;;;;;;46.40;44.53;;;10.20;99.90;;;;;;5074641;28;20448;-83
2022/12/21 12:31:08;;;;;;;49.40;47.10;;;10.20;99.90;;;;;;5062405;28;20455;-83
2022/12/21 12:33:49;;;;;;;35.70;33.90;;;10.30;99.90;;;;;;5071650;28;20486;-84
2022/12/21 12:36:28;;;;;;;26.53;24.80;;;10.20;99.90;;;;;;5058432;28;20458;-83
2022/12/21 12:39:04;;;;;;;27.57;25.70;;;10.30;99.90;;;;;;5067435;28;20825;-82
2022/12/21 12:41:39;;;;;;;17.80;16.50;;;10.30;99.90;;;;;;5086651;28;20450;-83
2022/12/21 12:44:15;;;;;;;15.77;14.20;;;10.40;99.90;;;;;;5077504;28;20480;-84
2022/12/21 12:46:57;;;;;;;16.10;14.50;;;10.50;99.90;;;;;;5077239;28;20473;-83
2022/12/21 12:49:43;;;;;;;14.47;13.17;;;10.40;99.90;;;;;;5073559;28;20533;-81
2022/12/21 12:52:19;;;;;;;14.03;12.73;;;10.40;99.90;;;;;;5075092;28;20481;-81
2022/12/21 12:54:56;;;;;;;17.90;16.40;;;10.40;99.90;;;;;;5058033;28;20858;-81
2022/12/21 12:57:32;;;;;;;23.70;22.10;;;10.40;99.90;;;;;;5055501;28;20451;-81
2022/12/21 13:00:06;;;;;;;27.77;25.87;;;10.40;99.90;;;;;;5073822;28;20453;-82
2022/12/21 13:02:41;;;;;;;29.60;28.00;;;10.50;99.90;;;;;;5072937;28;20481;-82
2022/12/21 13:05:24;;;;;;;30.37;28.60;;;10.60;99.90;;;;;;5059783;28;20455;-81
2022/12/21 13:08:00;;;;;;;28.90;27.10;;;10.50;99.90;;;;;;5055403;28;20482;-81
2022/12/21 13:10:37;;;;;;;25.97;24.27;;;10.50;99.90;;;;;;5058962;28;20776;-81
2022/12/21 13:13:12;;;;;;;32.07;30.27;;;10.40;99.90;;;;;;5055576;28;20536;-82
2022/12/21 13:15:45;;;;;;;29.93;28.07;;;10.40;99.90;;;;;;5057572;28;20498;-81
2022/12/21 13:18:14;;;;;;;38.70;36.60;;;10.40;99.90;;;;;;5068109;28;20450;-81
2022/12/21 13:20:45;;;;;;;34.63;32.93;;;10.40;99.90;;;;;;5062474;28;20455;-80